Time;durP1;ratioP1;P1;durP2;ratioP2;P2;SDS_P1;SDS_P2;PMS_P1;PMS_P2;Temp;Humidity;BMP_temperature;BMP_pressure;BME280_temperature;BME280_humidity;BME280_pressure;Samples;Min_cycle;Max_cycle;Signal;HPM_P1;HPM_P2
2023/05/27 00:01:12;;;;;;;13.52;3.67;;;;;;;14.15;100.00;102148.81;4992519;28;20046;-70
2023/05/27 00:03:40;;;;;;;17.60;4.45;;;;;;;14.07;100.00;102135.88;4992530;28;20050;-71
2023/05/27 00:06:07;;;;;;;14.43;4.30;;;;;;;13.99;100.00;102136.09;4992295;28;20045;-69
2023/05/27 00:08:33;;;;;;;13.32;3.38;;;;;;;14.13;100.00;102140.97;4992705;28;20133;-71
2023/05/27 00:11:00;;;;;;;12.27;3.40;;;;;;;14.22;100.00;102132.78;4992444;28;20051;-70
2023/05/27 00:13:27;;;;;;;13.00;4.13;;;;;;;14.15;100.00;102133.88;4992215;28;20054;-70
2023/05/27 00:15:54;;;;;;;14.23;3.92;;;;;;;14.12;100.00;102122.56;4991422;28;20089;-70
2023/05/27 00:18:21;;;;;;;10.55;3.17;;;;;;;14.24;100.00;102125.69;4992371;28;20058;-70
2023/05/27 00:20:48;;;;;;;13.00;3.80;;;;;;;14.01;100.00;102131.66;4992692;28;20126;-70
2023/05/27 00:23:15;;;;;;;17.67;4.70;;;;;;;14.05;100.00;102114.84;4992441;28;20054;-69
2023/05/27 00:25:41;;;;;;;17.45;4.28;;;;;;;13.92;100.00;102102.97;4991988;28;20510;-71
2023/05/27 00:28:09;;;;;;;14.88;4.25;;;;;;;14.09;100.00;102105.06;4992838;28;20092;-70
2023/05/27 00:30:36;;;;;;;16.38;4.40;;;;;;;14.08;100.00;102094.56;4991919;28;20085;-71
2023/05/27 00:33:03;;;;;;;13.35;4.68;;;;;;;14.06;100.00;102089.38;4991613;28;20057;-70
2023/05/27 00:35:30;;;;;;;15.70;4.20;;;;;;;14.16;100.00;102097.84;4991447;28;20129;-70
2023/05/27 00:37:57;;;;;;;19.55;5.57;;;;;;;13.98;100.00;102097.50;4991923;28;20061;-70
2023/05/27 00:40:26;;;;;;;15.75;5.05;;;;;;;13.88;100.00;102088.16;4991569;28;20046;-71
2023/05/27 00:42:52;;;;;;;16.33;4.40;;;;;;;14.05;100.00;102085.00;4988277;28;20407;-70
2023/05/27 00:45:19;;;;;;;15.70;4.80;;;;;;;14.04;100.00;102094.69;4990907;28;20050;-70
2023/05/27 00:47:46;;;;;;;20.88;5.30;;;;;;;14.28;100.00;102083.44;4991790;28;20111;-70
2023/05/27 00:50:14;;;;;;;14.38;3.67;;;;;;;14.05;100.00;102074.47;4991719;28;20054;-70
2023/05/27 00:52:41;;;;;;;16.73;4.38;;;;;;;13.94;100.00;102076.59;4991579;28;20137;-71
2023/05/27 00:55:08;;;;;;;19.63;4.72;;;;;;;13.93;100.00;102067.81;4991105;28;20060;-70
2023/05/27 00:57:35;;;;;;;15.20;4.82;;;;;;;14.16;100.00;102080.25;4991794;28;20072;-71
2023/05/27 01:00:07;;;;;;;15.40;4.85;;;;;;;14.33;100.00;102069.22;4991444;28;20054;-71
2023/05/27 01:02:33;;;;;;;17.77;5.60;;;;;;;14.40;100.00;102068.09;4991007;28;20050;-70
2023/05/27 01:05:00;;;;;;;14.98;4.63;;;;;;;14.34;100.00;102067.44;4990761;28;20050;-71
2023/05/27 01:07:42;;;;;;;15.38;5.22;;;;;;;14.36;100.00;102058.56;4990715;28;20093;-70
2023/05/27 01:10:49;;;;;;;15.77;3.70;;;;;;;14.38;100.00;102059.38;4990450;28;20046;-70
2023/05/27 01:13:40;;;;;;;12.13;3.17;;;;;;;14.53;100.00;102052.75;4984370;28;20058;-70
2023/05/27 01:16:12;;;;;;;10.43;3.45;;;;;;;14.43;100.00;102044.28;4983001;28;20069;-71
2023/05/27 01:18:44;;;;;;;11.45;3.40;;;;;;;14.41;100.00;102050.50;4990932;28;20077;-71
2023/05/27 01:21:13;;;;;;;12.90;4.00;;;;;;;14.39;100.00;102049.69;4991845;28;20054;-71
2023/05/27 01:23:44;;;;;;;18.85;4.55;;;;;;;14.39;100.00;102032.09;4991006;28;20522;-70
2023/05/27 01:26:11;;;;;;;13.60;4.20;;;;;;;14.37;100.00;102018.13;4990722;28;20464;-70
2023/05/27 01:28:38;;;;;;;14.70;3.70;;;;;;;14.43;100.00;102025.84;4990798;28;20057;-70
2023/05/27 01:31:10;;;;;;;16.38;4.07;;;;;;;14.52;100.00;102024.69;4991081;28;20061;-70
2023/05/27 01:33:40;;;;;;;11.67;3.40;;;;;;;14.40;100.00;102011.91;4991509;28;20054;-71
2023/05/27 01:36:17;;;;;;;13.93;4.03;;;;;;;14.39;100.00;102011.03;4990638;28;20058;-70
2023/05/27 01:38:47;;;;;;;11.88;3.47;;;;;;;14.19;100.00;102005.56;4991374;28;20050;-71
2023/05/27 01:41:15;;;;;;;12.90;3.70;;;;;;;14.32;100.00;102003.38;4991027;28;20047;-70
2023/05/27 01:43:43;;;;;;;11.25;3.65;;;;;;;14.23;100.00;101994.88;4990443;28;20061;-70
2023/05/27 01:46:10;;;;;;;10.18;2.95;;;;;;;14.31;100.00;101992.00;4969672;28;20089;-70
2023/05/27 01:48:36;;;;;;;10.20;3.38;;;;;;;14.17;100.00;101983.69;4984396;28;20484;-70
2023/05/27 01:51:03;;;;;;;11.18;2.92;;;;;;;14.25;100.00;101979.00;4990631;28;20050;-71
2023/05/27 01:53:30;;;;;;;10.77;3.42;;;;;;;14.07;100.00;101969.09;4991161;28;20064;-70
2023/05/27 01:55:57;;;;;;;9.00;3.03;;;;;;;14.08;100.00;101976.94;4992600;28;20046;-71
2023/05/27 01:58:23;;;;;;;13.90;3.13;;;;;;;13.95;100.00;101959.81;4990877;28;20088;-70
2023/05/27 02:00:50;;;;;;;12.75;3.47;;;;;;;13.94;100.00;101963.38;4990830;28;20082;-71
2023/05/27 02:03:17;;;;;;;11.82;3.63;;;;;;;13.83;100.00;101967.19;4990569;28;20133;-71
2023/05/27 02:05:45;;;;;;;9.45;3.08;;;;;;;13.85;100.00;101960.13;4989358;28;20050;-71
2023/05/27 02:08:11;;;;;;;13.40;3.00;;;;;;;13.85;100.00;101946.94;4991249;28;20599;-70
2023/05/27 02:10:38;;;;;;;11.07;3.38;;;;;;;13.77;100.00;101948.09;4990483;28;20069;-70
2023/05/27 02:13:05;;;;;;;9.88;2.78;;;;;;;13.65;100.00;101942.31;4972558;28;20061;-70
2023/05/27 02:15:31;;;;;;;10.27;2.90;;;;;;;13.53;100.00;101931.28;4971734;28;20069;-70
2023/05/27 02:17:59;;;;;;;9.38;2.50;;;;;;;13.50;100.00;101932.28;4972428;28;20089;-70
2023/05/27 02:20:26;;;;;;;8.93;2.70;;;;;;;13.44;100.00;101927.22;4977701;28;20100;-70
2023/05/27 02:22:53;;;;;;;9.25;2.55;;;;;;;13.53;100.00;101920.78;4987790;28;20046;-70
2023/05/27 02:25:20;;;;;;;11.20;2.45;;;;;;;13.45;100.00;101900.81;4988094;28;20057;-70
2023/05/27 02:27:48;;;;;;;10.55;3.17;;;;;;;13.52;100.00;101913.81;4990791;28;20042;-70
2023/05/27 02:30:15;;;;;;;11.20;2.65;;;;;;;13.49;100.00;101914.75;4987908;28;20056;-69
2023/05/27 02:32:43;;;;;;;12.25;2.80;;;;;;;13.40;100.00;101913.28;4990430;28;20043;-70
2023/05/27 02:35:14;;;;;;;8.35;2.33;;;;;;;13.43;100.00;101913.16;4989342;28;20078;-70
2023/05/27 02:37:41;;;;;;;10.88;3.42;;;;;;;13.24;100.00;101904.97;4994390;28;20046;-69
2023/05/27 02:40:09;;;;;;;11.10;3.13;;;;;;;13.09;100.00;101914.16;4994370;28;20496;-70
2023/05/27 02:42:36;;;;;;;13.07;3.67;;;;;;;13.15;100.00;101896.47;4993910;28;20081;-71
2023/05/27 02:45:03;;;;;;;14.07;3.38;;;;;;;12.85;100.00;101889.44;4992671;28;20078;-70
2023/05/27 02:47:30;;;;;;;13.07;3.63;;;;;;;12.85;100.00;101899.09;4994154;28;20050;-70
2023/05/27 02:49:56;;;;;;;11.45;2.88;;;;;;;12.79;100.00;101886.13;4994345;28;20051;-71
2023/05/27 02:52:23;;;;;;;9.50;2.70;;;;;;;12.93;100.00;101889.22;4993811;28;20054;-69
2023/05/27 02:54:50;;;;;;;14.93;3.55;;;;;;;12.98;100.00;101884.69;4993301;28;20134;-70
2023/05/27 02:57:18;;;;;;;9.35;2.63;;;;;;;12.93;100.00;101875.22;4994090;28;20049;-70
2023/05/27 02:59:45;;;;;;;11.88;3.35;;;;;;;13.16;100.00;101880.66;4994241;28;20047;-70
2023/05/27 03:02:12;;;;;;;10.77;2.97;;;;;;;12.97;100.00;101882.13;4993945;28;20248;-70
2023/05/27 03:04:39;;;;;;;9.75;2.83;;;;;;;12.90;100.00;101889.31;4993040;28;20103;-70
2023/05/27 03:07:06;;;;;;;11.70;3.22;;;;;;;12.85;100.00;101883.31;4994172;28;20137;-71
2023/05/27 03:09:32;;;;;;;11.90;3.30;;;;;;;12.81;100.00;101864.16;4993880;28;20563;-70
2023/05/27 03:11:59;;;;;;;14.38;3.40;;;;;;;12.79;100.00;101865.97;4993412;28;20050;-70
2023/05/27 03:14:26;;;;;;;9.10;2.60;;;;;;;12.90;100.00;101878.78;4991385;28;20408;-70
2023/05/27 03:16:53;;;;;;;10.52;2.83;;;;;;;12.82;100.00;101876.41;4993567;28;20046;-69
2023/05/27 03:19:20;;;;;;;10.77;2.75;;;;;;;12.76;100.00;101863.41;4992624;28;20419;-70
2023/05/27 03:21:47;;;;;;;10.65;3.22;;;;;;;12.69;100.00;101870.59;4992893;28;20508;-70
2023/05/27 03:24:16;;;;;;;11.00;3.08;;;;;;;12.67;100.00;101864.53;4992766;28;20073;-70
2023/05/27 03:26:43;;;;;;;11.32;3.15;;;;;;;12.70;100.00;101860.97;4992739;28;20129;-70
2023/05/27 03:29:09;;;;;;;13.98;3.13;;;;;;;12.66;100.00;101862.84;4992443;28;20086;-70
2023/05/27 03:31:36;;;;;;;12.80;3.65;;;;;;;12.56;100.00;101860.50;4992835;28;20134;-70
2023/05/27 03:34:03;;;;;;;9.50;3.13;;;;;;;12.59;100.00;101865.66;4992833;28;20054;-69
2023/05/27 03:36:30;;;;;;;11.85;3.63;;;;;;;12.51;100.00;101858.00;4991920;28;20557;-70
2023/05/27 03:38:56;;;;;;;7.20;2.35;;;;;;;12.54;100.00;101857.94;4993460;28;20050;-70
2023/05/27 03:41:23;;;;;;;8.15;2.83;;;;;;;12.62;100.00;101845.41;4992790;28;20056;-70
2023/05/27 03:43:50;;;;;;;10.70;3.33;;;;;;;12.65;100.00;101857.63;4993349;28;20056;-70
2023/05/27 03:46:16;;;;;;;10.13;3.38;;;;;;;12.62;100.00;101853.28;4990944;28;20069;-70
2023/05/27 03:48:43;;;;;;;11.18;2.83;;;;;;;12.54;100.00;101852.69;4978417;28;20515;-70
2023/05/27 03:51:10;;;;;;;10.10;2.88;;;;;;;12.68;100.00;101841.78;4985205;28;20061;-70
2023/05/27 03:53:37;;;;;;;9.52;2.95;;;;;;;12.59;100.00;101829.75;4988987;28;20082;-71
2023/05/27 03:56:04;;;;;;;7.85;2.40;;;;;;;12.75;100.00;101847.69;4991083;28;20557;-70
2023/05/27 03:58:30;;;;;;;14.10;3.30;;;;;;;12.71;100.00;101831.16;4993017;28;20431;-70
2023/05/27 04:00:57;;;;;;;10.48;3.42;;;;;;;12.73;100.00;101843.34;4992652;28;20086;-70
2023/05/27 04:03:25;;;;;;;9.63;2.70;;;;;;;12.73;100.00;101832.84;4992601;28;20094;-70
2023/05/27 04:05:53;;;;;;;12.63;3.63;;;;;;;12.90;100.00;101821.81;4990150;28;20499;-70
2023/05/27 04:08:22;;;;;;;10.07;3.28;;;;;;;12.89;100.00;101814.84;4993039;28;20408;-70
2023/05/27 04:10:49;;;;;;;10.57;3.97;;;;;;;13.14;100.00;101824.63;4992313;28;20142;-70
2023/05/27 04:13:15;;;;;;;11.35;3.13;;;;;;;13.40;100.00;101828.22;4992655;28;20077;-70
2023/05/27 04:15:42;;;;;;;12.27;3.42;;;;;;;13.47;100.00;101817.47;4990940;28;20057;-70
2023/05/27 04:18:09;;;;;;;11.15;2.92;;;;;;;13.70;100.00;101813.19;4992655;28;20052;-70
2023/05/27 04:20:41;;;;;;;11.52;3.13;;;;;;;14.07;100.00;101822.47;4993065;28;20072;-70
2023/05/27 04:23:10;;;;;;;19.92;4.85;;;;;;;14.34;100.00;101809.25;4992557;28;20077;-71
2023/05/27 04:25:37;;;;;;;12.48;3.53;;;;;;;14.69;100.00;101797.41;4991434;28;20109;-70
2023/05/27 04:28:04;;;;;;;10.15;3.40;;;;;;;15.22;100.00;101805.94;4992012;28;20125;-70
2023/05/27 04:30:31;;;;;;;12.88;4.05;;;;;;;15.55;100.00;101806.34;4987997;28;20053;-70
2023/05/27 04:32:59;;;;;;;13.32;3.58;;;;;;;15.83;100.00;101808.72;4992134;28;20476;-70
2023/05/27 04:35:26;;;;;;;10.07;3.75;;;;;;;16.39;100.00;101816.88;4991520;28;20050;-70
2023/05/27 04:37:53;;;;;;;14.45;3.78;;;;;;;16.72;100.00;101797.78;4980646;28;20049;-70
2023/05/27 04:40:19;;;;;;;9.23;2.85;;;;;;;17.08;100.00;101796.03;4988506;28;20082;-69
2023/05/27 04:42:47;;;;;;;11.43;3.47;;;;;;;17.15;100.00;101803.69;4991741;28;20046;-70
2023/05/27 04:45:14;;;;;;;9.25;3.38;;;;;;;17.50;100.00;101803.75;4990699;28;20125;-70
2023/05/27 04:47:40;;;;;;;20.30;4.95;;;;;;;17.43;100.00;101792.63;4991977;28;20161;-71
2023/05/27 04:50:09;;;;;;;12.73;3.85;;;;;;;16.31;100.00;101802.22;4992788;28;20046;-70
2023/05/27 04:52:40;;;;;;;15.65;4.57;;;;;;;16.12;100.00;101806.59;4992067;28;20346;-70
2023/05/27 04:55:11;;;;;;;13.95;4.30;;;;;;;15.85;100.00;101796.31;4973439;28;20046;-69
2023/05/27 04:57:40;;;;;;;11.95;4.05;;;;;;;15.45;100.00;101797.94;4990835;28;20460;-70
2023/05/27 05:02:35;;;;;;;10.80;3.72;;;;;;;15.54;100.00;101787.00;4990969;28;20093;-70
2023/05/27 05:05:04;;;;;;;11.02;3.72;;;;;;;15.33;100.00;101798.44;4991116;28;20054;-70
2023/05/27 05:07:31;;;;;;;11.43;3.70;;;;;;;15.11;100.00;101783.50;4991424;28;20481;-70
2023/05/27 05:09:57;;;;;;;9.63;3.20;;;;;;;15.13;100.00;101792.19;4990240;28;20050;-70
2023/05/27 05:12:25;;;;;;;11.50;2.92;;;;;;;15.05;100.00;101786.38;4990941;28;20443;-70
2023/05/27 05:14:52;;;;;;;11.38;3.13;;;;;;;15.07;100.00;101795.09;4989616;28;20105;-70
2023/05/27 05:17:19;;;;;;;13.82;3.25;;;;;;;15.25;100.00;101792.66;4989734;28;20073;-70
2023/05/27 05:19:46;;;;;;;10.57;3.10;;;;;;;15.21;100.00;101785.75;4977605;28;20421;-70
2023/05/27 05:22:13;;;;;;;7.80;2.63;;;;;;;15.24;100.00;101797.03;4989491;28;20051;-70
2023/05/27 05:24:40;;;;;;;10.80;3.42;;;;;;;15.12;100.00;101793.13;4986112;28;20053;-70
2023/05/27 05:27:07;;;;;;;9.57;2.83;;;;;;;15.09;100.00;101801.16;4987209;28;20154;-70
2023/05/27 05:29:33;;;;;;;7.97;2.83;;;;;;;15.10;100.00;101797.63;4982631;28;20125;-70
2023/05/27 05:32:00;;;;;;;8.93;2.45;;;;;;;15.19;100.00;101791.09;4988201;28;20520;-70
2023/05/27 05:34:28;;;;;;;9.25;2.47;;;;;;;15.34;100.00;101808.94;4988753;28;20059;-70
2023/05/27 05:36:55;;;;;;;11.15;3.20;;;;;;;15.50;100.00;101806.53;4971590;28;20137;-70
2023/05/27 05:39:26;;;;;;;9.75;3.22;;;;;;;15.42;100.00;101808.63;4990535;28;20543;-69
2023/05/27 05:41:55;;;;;;;9.35;3.20;;;;;;;15.35;100.00;101800.13;4973176;28;20054;-70
2023/05/27 05:44:22;;;;;;;8.80;2.78;;;;;;;15.35;100.00;101793.97;4987055;28;20101;-69
2023/05/27 05:46:49;;;;;;;12.90;3.13;;;;;;;15.65;100.00;101794.50;4981585;28;20120;-70
2023/05/27 05:49:19;;;;;;;8.07;2.85;;;;;;;15.79;100.00;101799.19;4988536;28;20673;-69
2023/05/27 05:51:49;;;;;;;7.50;2.20;;;;;;;15.62;100.00;101799.91;4988902;28;20050;-69
2023/05/27 05:54:18;;;;;;;7.85;2.13;;;;;;;15.66;100.00;101790.91;4973830;28;20062;-70
2023/05/27 05:56:50;;;;;;;8.77;2.13;;;;;;;15.67;100.00;101783.84;4988894;28;20046;-69
2023/05/27 05:59:18;;;;;;;7.20;2.05;;;;;;;15.74;100.00;101786.22;4968129;28;20120;-69
2023/05/27 06:01:46;;;;;;;9.02;2.00;;;;;;;15.74;100.00;101770.38;4988524;28;20415;-69
2023/05/27 06:04:17;;;;;;;7.45;2.25;;;;;;;15.60;100.00;101782.41;4989558;28;20058;-69
2023/05/27 06:06:45;;;;;;;6.47;2.03;;;;;;;15.68;100.00;101785.56;4972729;28;20052;-70
2023/05/27 06:09:13;;;;;;;6.47;2.17;;;;;;;15.74;100.00;101785.31;4971196;28;20043;-70
2023/05/27 06:11:41;;;;;;;8.00;2.10;;;;;;;15.61;100.00;101774.41;4989585;28;20221;-70
2023/05/27 06:14:07;;;;;;;6.20;1.88;;;;;;;15.64;100.00;101778.72;4988884;28;20163;-70
2023/05/27 06:16:39;;;;;;;7.22;2.10;;;;;;;15.54;100.00;101773.81;4987830;28;20465;-71
2023/05/27 06:19:06;;;;;;;6.97;2.20;;;;;;;15.65;100.00;101769.84;4989640;28;20459;-70
2023/05/27 06:21:33;;;;;;;5.90;1.90;;;;;;;15.67;100.00;101768.00;4989791;28;20169;-70
2023/05/27 06:24:00;;;;;;;6.70;1.92;;;;;;;15.67;100.00;101771.53;4989628;28;20064;-71
2023/05/27 06:26:28;;;;;;;10.70;3.50;;;;;;;15.55;100.00;101769.41;4986876;28;20547;-70
2023/05/27 06:28:55;;;;;;;8.75;2.80;;;;;;;15.64;100.00;101755.81;4973338;28;20973;-70
2023/05/27 06:31:22;;;;;;;11.40;3.85;;;;;;;15.50;100.00;101753.75;4989743;28;20057;-69
2023/05/27 06:33:49;;;;;;;10.05;3.85;;;;;;;15.41;100.00;101754.16;4989455;28;20077;-70
2023/05/27 06:36:16;;;;;;;10.13;3.47;;;;;;;15.41;100.00;101756.78;4988698;28;20057;-70
2023/05/27 06:38:43;;;;;;;12.20;4.18;;;;;;;15.74;100.00;101751.88;4972947;28;20130;-70
2023/05/27 06:41:09;;;;;;;10.98;3.42;;;;;;;15.65;100.00;101757.53;4988625;28;20145;-70
2023/05/27 06:43:36;;;;;;;8.07;3.25;;;;;;;15.72;100.00;101758.09;4995274;28;20050;-70
2023/05/27 06:46:03;;;;;;;9.88;3.35;;;;;;;15.64;100.00;101749.69;4970582;28;20080;-70
2023/05/27 06:48:31;;;;;;;8.80;2.97;;;;;;;15.65;100.00;101752.25;4989941;28;20054;-70
2023/05/27 06:50:58;;;;;;;8.98;2.80;;;;;;;15.77;100.00;101758.81;4990076;28;20544;-71
2023/05/27 06:53:25;;;;;;;7.03;2.72;;;;;;;16.02;100.00;101753.31;4989610;28;20056;-71
2023/05/27 06:55:51;;;;;;;6.25;1.77;;;;;;;15.97;100.00;101760.59;4983190;28;20073;-71
2023/05/27 06:58:18;;;;;;;6.90;1.83;;;;;;;15.93;100.00;101749.28;4987547;28;20050;-71
2023/05/27 07:00:45;;;;;;;4.43;1.40;;;;;;;16.07;100.00;101755.75;4975287;28;20054;-70
2023/05/27 07:03:12;;;;;;;5.03;1.63;;;;;;;16.17;100.00;101753.56;4985194;28;20076;-70
2023/05/27 07:05:38;;;;;;;5.15;1.38;;;;;;;16.40;100.00;101748.09;4986602;28;20053;-70
2023/05/27 07:08:05;;;;;;;2.75;1.10;;;;;;;16.45;100.00;101754.03;4987851;28;20046;-70
2023/05/27 07:10:32;;;;;;;4.00;1.20;;;;;;;16.23;100.00;101742.72;4982722;28;20125;-70
2023/05/27 07:12:59;;;;;;;2.50;1.10;;;;;;;16.50;100.00;101756.44;4988916;28;20058;-70
2023/05/27 07:15:27;;;;;;;2.22;1.00;;;;;;;16.40;100.00;101729.59;4977826;28;20411;-70
2023/05/27 07:17:54;;;;;;;4.28;1.17;;;;;;;16.75;100.00;101731.50;4959568;28;20061;-70
2023/05/27 07:20:20;;;;;;;3.05;1.00;;;;;;;16.82;100.00;101741.72;4972315;28;20054;-70
2023/05/27 07:22:48;;;;;;;3.42;1.20;;;;;;;16.77;100.00;101741.09;4977165;28;20050;-69
2023/05/27 07:25:15;;;;;;;3.45;1.10;;;;;;;17.13;100.00;101744.69;4986645;28;20060;-69
2023/05/27 07:27:41;;;;;;;3.03;1.10;;;;;;;16.96;100.00;101753.44;4984072;28;20407;-71
2023/05/27 07:30:09;;;;;;;3.15;1.27;;;;;;;16.84;100.00;101737.25;4988171;28;20082;-69
2023/05/27 07:32:37;;;;;;;2.97;1.23;;;;;;;16.88;100.00;101735.31;4989863;28;20415;-70
2023/05/27 07:35:06;;;;;;;3.22;1.10;;;;;;;16.95;100.00;101720.84;4971738;28;20105;-70
2023/05/27 07:37:33;;;;;;;3.40;1.20;;;;;;;17.08;100.00;101721.09;4996298;28;20085;-70
2023/05/27 07:40:00;;;;;;;5.63;1.40;;;;;;;16.83;100.00;101718.78;4990879;28;20763;-71
2023/05/27 07:42:27;;;;;;;2.45;1.00;;;;;;;17.10;100.00;101724.53;4987615;28;20046;-70
2023/05/27 07:44:56;;;;;;;3.28;1.17;;;;;;;17.15;100.00;101714.56;4979253;28;20104;-70
2023/05/27 07:47:22;;;;;;;2.30;1.08;;;;;;;17.41;100.00;101726.50;4975189;28;20057;-70
2023/05/27 07:49:50;;;;;;;4.70;1.30;;;;;;;17.67;100.00;101726.97;4984622;28;20093;-69
2023/05/27 07:52:17;;;;;;;3.10;1.13;;;;;;;17.73;100.00;101726.66;4974504;28;20073;-70
2023/05/27 07:54:44;;;;;;;4.03;1.33;;;;;;;17.81;100.00;101720.94;4990133;28;20492;-70
2023/05/27 07:57:20;;;;;;;3.65;1.40;;;;;;;17.75;100.00;101724.75;4983899;28;20042;-70
2023/05/27 07:59:47;;;;;;;4.25;1.30;;;;;;;17.82;100.00;101723.50;4991026;28;20074;-70
2023/05/27 08:02:14;;;;;;;3.17;1.10;;;;;;;17.86;100.00;101708.34;4985537;28;20055;-70
2023/05/27 08:04:43;;;;;;;4.10;1.25;;;;;;;17.83;100.00;101697.91;4982627;28;20061;-70
2023/05/27 08:07:10;;;;;;;4.80;1.30;;;;;;;17.69;100.00;101706.56;4978770;28;20054;-70
2023/05/27 08:09:37;;;;;;;3.60;1.25;;;;;;;17.63;100.00;101710.34;4976659;28;20043;-69
2023/05/27 08:12:06;;;;;;;4.82;1.27;;;;;;;17.46;100.00;101705.09;4979826;28;20056;-70
2023/05/27 08:14:34;;;;;;;3.78;1.35;;;;;;;17.38;100.00;101696.69;4982040;28;20046;-70
2023/05/27 08:17:01;;;;;;;4.28;1.30;;;;;;;17.56;100.00;101701.03;4979149;28;20182;-69
2023/05/27 08:19:28;;;;;;;3.33;1.25;;;;;;;17.82;100.00;101699.66;4971808;28;20042;-70
2023/05/27 08:21:56;;;;;;;4.32;1.17;;;;;;;18.23;100.00;101687.81;4982861;28;20060;-70
2023/05/27 08:24:24;;;;;;;4.38;1.30;;;;;;;19.04;100.00;101670.94;4975129;28;20480;-70
2023/05/27 08:26:50;;;;;;;3.55;1.20;;;;;;;19.30;100.00;101696.81;4975679;28;20054;-70
2023/05/27 08:29:18;;;;;;;4.32;1.20;;;;;;;19.46;100.00;101686.13;4984687;28;20471;-70
2023/05/27 08:31:45;;;;;;;3.63;1.20;;;;;;;20.29;100.00;101688.13;4976409;28;20055;-70
2023/05/27 08:34:12;;;;;;;3.08;1.08;;;;;;;20.80;100.00;101691.06;4990334;28;20054;-70
2023/05/27 08:36:39;;;;;;;4.18;1.40;;;;;;;20.82;100.00;101688.31;4988485;28;20141;-70
2023/05/27 08:39:06;;;;;;;4.40;1.40;;;;;;;21.06;100.00;101685.84;4989559;28;20404;-70
2023/05/27 08:41:34;;;;;;;2.17;0.90;;;;;;;21.15;100.00;101684.38;4977126;28;20052;-70
2023/05/27 08:44:01;;;;;;;2.65;1.15;;;;;;;21.20;100.00;101692.91;4988601;28;20133;-71
2023/05/27 08:46:48;;;;;;;4.40;1.10;;;;;;;21.42;100.00;101695.81;4977405;28;20056;-70
2023/05/27 08:49:15;;;;;;;2.22;0.98;;;;;;;20.73;100.00;101689.78;4984169;28;20058;-70
2023/05/27 08:51:45;;;;;;;3.50;1.20;;;;;;;21.07;100.00;101690.22;4989595;28;20047;-70
2023/05/27 08:54:12;;;;;;;3.28;1.13;;;;;;;20.98;100.00;101677.50;4990486;28;20082;-70
2023/05/27 08:56:40;;;;;;;3.03;0.95;;;;;;;20.90;100.00;101670.03;4986465;28;20096;-69
2023/05/27 08:59:08;;;;;;;2.40;0.90;;;;;;;20.71;100.00;101680.19;4985800;28;20474;-70
2023/05/27 09:01:35;;;;;;;2.58;0.80;;;;;;;20.21;100.00;101685.97;4990255;28;20054;-70
2023/05/27 09:04:02;;;;;;;3.80;1.02;;;;;;;20.27;100.00;101680.28;4986478;28;20058;-70
2023/05/27 09:06:29;;;;;;;3.10;1.00;;;;;;;20.09;100.00;101676.97;4990284;28;20058;-70
2023/05/27 09:08:56;;;;;;;2.55;1.00;;;;;;;20.08;100.00;101671.75;4986240;28;20525;-70
2023/05/27 09:11:28;;;;;;;2.83;1.00;;;;;;;19.71;100.00;101671.34;4990185;28;20097;-70
2023/05/27 09:13:56;;;;;;;;;;;;;;;20.19;100.00;101665.75;4986715;28;20528;-70
2023/05/27 09:16:23;;;;;;;1.85;0.70;;;;;;;20.00;100.00;101666.91;4990165;28;19929;-71
2023/05/27 09:18:50;;;;;;;2.22;0.90;;;;;;;19.90;100.00;101666.66;4981757;28;20046;-70
2023/05/27 09:21:17;;;;;;;4.03;0.90;;;;;;;20.51;100.00;101666.34;4984267;28;20062;-71
2023/05/27 09:23:44;;;;;;;2.50;1.00;;;;;;;20.44;100.00;101665.88;4985839;28;20090;-71
2023/05/27 09:26:13;;;;;;;3.20;1.17;;;;;;;20.33;100.00;101664.84;4989090;28;20062;-70
2023/05/27 09:28:40;;;;;;;2.17;0.90;;;;;;;20.88;100.00;101652.47;4990275;28;20516;-71
2023/05/27 09:31:08;;;;;;;3.33;1.10;;;;;;;20.49;100.00;101655.81;4992815;28;20066;-70
2023/05/27 09:33:38;;;;;;;2.25;0.90;;;;;;;21.36;100.00;101658.94;5001159;28;20058;-70
2023/05/27 09:36:06;;;;;;;4.10;1.13;;;;;;;21.48;100.00;101643.97;4985014;28;20043;-70
2023/05/27 09:38:35;;;;;;;3.00;1.02;;;;;;;22.09;100.00;101640.56;4986374;28;20132;-70
2023/05/27 09:41:02;;;;;;;2.58;1.00;;;;;;;21.65;100.00;101645.44;4969885;28;20133;-71
2023/05/27 09:43:30;;;;;;;3.42;1.00;;;;;;;21.40;100.00;101644.44;4988710;28;20046;-71
2023/05/27 09:46:02;;;;;;;2.28;0.93;;;;;;;21.16;100.00;101635.47;4984893;28;20050;-70
2023/05/27 09:48:33;;;;;;;3.23;1.13;;;;;;;20.59;100.00;101642.78;4989291;28;20058;-70
2023/05/27 09:51:01;;;;;;;2.55;0.90;;;;;;;20.49;100.00;101639.00;4988507;28;20504;-70
2023/05/27 09:53:28;;;;;;;2.38;0.82;;;;;;;20.75;100.00;101634.66;4971527;28;20070;-70
2023/05/27 09:55:56;;;;;;;1.50;0.80;;;;;;;21.42;100.00;101642.56;4988793;28;20050;-71
2023/05/27 09:58:24;;;;;;;2.20;0.80;;;;;;;22.02;100.00;101621.50;4984955;28;20060;-71
2023/05/27 10:00:51;;;;;;;3.63;1.10;;;;;;;22.14;100.00;101607.28;4984525;28;20047;-70
2023/05/27 10:03:27;;;;;;;4.40;1.08;;;;;;;22.34;99.22;101621.84;4987412;28;20046;-70
2023/05/27 10:05:56;;;;;;;2.65;0.90;;;;;;;22.12;100.00;101614.53;4986465;28;20058;-70
2023/05/27 10:08:26;;;;;;;3.35;1.10;;;;;;;21.83;97.77;101621.94;4990986;28;20054;-70
2023/05/27 10:10:53;;;;;;;3.05;1.15;;;;;;;21.63;100.00;101610.06;4983198;28;20147;-70
2023/05/27 10:13:21;;;;;;;2.78;1.00;;;;;;;20.96;100.00;101608.38;4988615;28;20050;-70
2023/05/27 10:15:51;;;;;;;3.20;1.00;;;;;;;21.14;100.00;101613.41;4986447;28;20070;-70
2023/05/27 10:18:34;;;;;;;2.85;0.90;;;;;;;21.08;100.00;101604.06;4990797;28;20149;-70
2023/05/27 10:21:04;;;;;;;3.83;1.10;;;;;;;20.77;100.00;101615.91;4986773;28;20675;-70
2023/05/27 10:23:31;;;;;;;6.13;1.55;;;;;;;20.24;100.00;101606.03;4990448;28;20137;-71
2023/05/27 10:26:07;;;;;;;5.38;1.42;;;;;;;19.69;100.00;101601.53;4988049;28;20050;-70
2023/05/27 10:28:39;;;;;;;4.45;1.52;;;;;;;19.34;100.00;101605.38;4985585;28;20050;-69
2023/05/27 10:31:13;;;;;;;4.72;1.63;;;;;;;18.53;100.00;101576.53;4983645;28;20077;-70
2023/05/27 10:33:48;;;;;;;6.60;1.60;;;;;;;18.91;100.00;101586.75;4985931;28;20087;-70
2023/05/27 10:36:17;;;;;;;5.32;1.50;;;;;;;18.82;100.00;101592.56;4985477;28;20508;-70
2023/05/27 10:38:56;;;;;;;5.60;1.65;;;;;;;19.30;100.00;101593.25;4974457;28;20050;-70
2023/05/27 10:41:23;;;;;;;7.97;1.58;;;;;;;19.46;100.00;101592.28;4981739;28;20056;-71
2023/05/27 10:43:57;;;;;;;6.30;1.40;;;;;;;19.14;100.00;101581.84;4989255;28;20093;-71
2023/05/27 10:46:24;;;;;;;5.47;1.73;;;;;;;19.21;100.00;101587.63;4980564;28;20142;-70
2023/05/27 10:48:52;;;;;;;5.07;1.55;;;;;;;19.03;100.00;101560.41;4978334;28;20567;-70
2023/05/27 10:51:19;;;;;;;4.45;1.48;;;;;;;19.27;100.00;101532.38;4975264;28;20533;-69
2023/05/27 10:53:46;;;;;;;8.25;1.60;;;;;;;19.53;100.00;101562.63;4985929;28;20149;-70
2023/05/27 10:56:21;;;;;;;5.32;1.63;;;;;;;19.47;100.00;101572.78;4985314;28;20133;-70
2023/05/27 10:58:50;;;;;;;5.05;1.35;;;;;;;19.60;100.00;101563.09;4976284;28;20137;-70
2023/05/27 11:01:18;;;;;;;4.93;1.52;;;;;;;19.23;100.00;101569.81;4994406;28;20054;-70
2023/05/27 11:03:49;;;;;;;7.47;2.00;;;;;;;19.23;100.00;101568.03;4991283;28;20053;-70
2023/05/27 11:06:18;;;;;;;6.35;1.90;;;;;;;19.22;100.00;101552.19;4972129;28;20065;-70
2023/05/27 11:08:45;;;;;;;4.85;1.70;;;;;;;19.33;100.00;101563.00;4992452;28;20082;-70
2023/05/27 11:11:12;;;;;;;4.38;1.63;;;;;;;19.56;100.00;101558.91;4990988;28;20050;-70
2023/05/27 11:13:44;;;;;;;5.57;1.80;;;;;;;19.29;100.00;101558.84;4989096;28;20057;-71
2023/05/27 11:16:15;;;;;;;4.70;1.42;;;;;;;19.53;100.00;101549.34;4985997;28;20105;-70
2023/05/27 11:18:47;;;;;;;7.28;1.77;;;;;;;19.23;100.00;101546.78;4968089;28;20054;-70
2023/05/27 11:21:18;;;;;;;8.90;2.00;;;;;;;19.79;100.00;101544.22;4983606;28;20046;-70